createdAt,value
2023-03-29T00:04:53.628Z,0.73
2023-03-29T00:09:56.802Z,0.88
2023-03-29T00:14:59.758Z,0.60
2023-03-29T00:20:02.348Z,1.15
2023-03-29T00:25:07.321Z,0.88
2023-03-29T00:35:13.233Z,0.85
2023-03-29T00:40:16.014Z,0.52
2023-03-29T00:45:19.129Z,0.85
2023-03-29T00:50:25.959Z,0.88
2023-03-29T00:55:33.777Z,2.83
2023-03-29T01:01:02.342Z,2.03
2023-03-29T01:06:09.194Z,0.88
2023-03-29T01:11:22.189Z,1.40
2023-03-29T01:16:28.623Z,2.47
2023-03-29T01:22:13.563Z,0.80
2023-03-29T01:27:55.007Z,0.82
2023-03-29T01:33:34.177Z,7.32
2023-03-29T01:38:48.756Z,1.05
2023-03-29T01:44:03.684Z,0.93
2023-03-29T01:49:32.477Z,0.98
2023-03-29T01:54:48.048Z,2.35
2023-03-29T01:59:52.535Z,1.20
2023-03-29T02:04:57.496Z,1.02
2023-03-29T02:10:00.968Z,0.82
2023-03-29T02:15:07.056Z,2.58
2023-03-29T02:20:20.656Z,2.83
2023-03-29T02:25:24.574Z,1.02
2023-03-29T02:30:35.789Z,1.37
2023-03-29T02:35:48.969Z,0.75
2023-03-29T02:40:52.938Z,1.55
2023-03-29T02:45:56.044Z,1.97
2023-03-29T02:51:04.560Z,2.55
2023-03-29T02:56:08.101Z,1.15
2023-03-29T03:01:11.316Z,1.75
2023-03-29T03:06:14.049Z,3.20
2023-03-29T03:11:16.968Z,3.90
2023-03-29T03:16:19.632Z,1.35
2023-03-29T03:21:23.506Z,1.65
2023-03-29T03:26:30.187Z,3.97
2023-03-29T03:31:33.599Z,1.00
2023-03-29T03:37:01.794Z,1.92
2023-03-29T03:42:08.467Z,4.13
2023-03-29T03:47:16.958Z,1.45
2023-03-29T03:52:20.004Z,3.05
2023-03-29T03:57:24.813Z,2.47
2023-03-29T04:02:29.193Z,0.85
2023-03-29T04:07:32.781Z,1.10
2023-03-29T04:13:08.367Z,2.40
2023-03-29T04:18:27.773Z,2.05
2023-03-29T04:23:33.230Z,0.90
2023-03-29T04:28:36.286Z,0.77
2023-03-29T04:34:00.544Z,0.60
2023-03-29T04:39:04.578Z,1.00
2023-03-29T04:44:08.441Z,1.95
2023-03-29T04:49:11.491Z,1.05
2023-03-29T04:54:17.034Z,1.48
2023-03-29T04:59:40.026Z,1.88
2023-03-29T05:04:54.276Z,1.02
2023-03-29T05:09:56.983Z,1.48
2023-03-29T05:14:59.727Z,0.63
2023-03-29T05:20:10.294Z,0.60
2023-03-29T05:25:13.664Z,1.55
2023-03-29T05:30:18.078Z,1.65
2023-03-29T05:35:40.991Z,0.80
2023-03-29T05:40:44.560Z,1.05
2023-03-29T05:46:16.512Z,1.25
2023-03-29T05:51:24.948Z,1.17
2023-03-29T05:56:30.904Z,2.55
2023-03-29T06:01:37.008Z,0.80
2023-03-29T06:06:43.098Z,1.15
2023-03-29T06:11:47.678Z,0.83
2023-03-29T06:17:05.666Z,1.45
2023-03-29T06:22:08.356Z,2.28
2023-03-29T06:27:11.218Z,1.42
2023-03-29T06:32:13.800Z,5.20
2023-03-29T06:37:23.748Z,2.47
2023-03-29T06:42:35.787Z,2.00
2023-03-29T06:48:17.411Z,4.38
2023-03-29T06:53:20.568Z,3.67
2023-03-29T06:58:31.203Z,0.95
2023-03-29T07:03:40.446Z,1.38
2023-03-29T07:08:43.884Z,2.33
2023-03-29T07:14:02.096Z,1.92
2023-03-29T07:19:05.573Z,1.63
2023-03-29T07:24:26.632Z,1.40
2023-03-29T07:29:29.458Z,1.13
2023-03-29T07:34:33.234Z,1.20
2023-03-29T07:39:37.174Z,2.17
2023-03-29T07:45:09.407Z,1.45
2023-03-29T07:50:22.216Z,1.48
2023-03-29T07:55:25.152Z,2.33
2023-03-29T08:00:58.693Z,2.10
2023-03-29T08:06:20.000Z,4.20
2023-03-29T08:11:24.720Z,1.20
2023-03-29T08:16:36.722Z,0.85
2023-03-29T08:21:45.207Z,7.10
2023-03-29T08:26:48.931Z,0.70
2023-03-29T08:31:56.450Z,1.17
2023-03-29T08:37:00.027Z,2.00
2023-03-29T08:42:37.722Z,1.13
2023-03-29T08:47:53.258Z,0.98
2023-03-29T08:53:02.093Z,0.73
2023-03-29T08:58:29.159Z,0.90
2023-03-29T09:03:41.802Z,1.27
2023-03-29T09:08:52.940Z,2.30
2023-03-29T09:14:19.480Z,6.00
2023-03-29T09:20:01.634Z,1.77
2023-03-29T09:25:09.993Z,1.42
2023-03-29T09:30:26.700Z,1.25
2023-03-29T09:35:47.893Z,2.08
2023-03-29T09:40:56.742Z,3.90
2023-03-29T09:46:07.062Z,0.60
2023-03-29T09:51:13.094Z,1.35
2023-03-29T09:56:16.956Z,3.40
2023-03-29T10:01:26.105Z,1.17
2023-03-29T10:06:29.477Z,3.10
2023-03-29T10:11:37.304Z,4.20
2023-03-29T10:16:42.553Z,1.65
2023-03-29T10:21:49.025Z,2.35
2023-03-29T10:27:29.031Z,4.03
2023-03-29T10:32:35.898Z,0.85
2023-03-29T10:37:48.734Z,8.70
2023-03-29T10:42:53.967Z,3.60
2023-03-29T10:47:59.083Z,3.13
2023-03-29T10:53:03.314Z,1.05
2023-03-29T10:58:31.620Z,2.90
2023-03-29T11:04:11.762Z,1.92
2023-03-29T11:09:55.726Z,1.20
2023-03-29T11:15:33.916Z,0.50
2023-03-29T11:20:53.776Z,4.55
2023-03-29T11:26:43.765Z,1.77
2023-03-29T11:32:04.421Z,3.60
2023-03-29T11:37:29.027Z,0.65
2023-03-29T11:42:39.309Z,0.87
2023-03-29T11:47:44.551Z,2.80
2023-03-29T11:53:17.932Z,1.88
2023-03-29T11:58:36.647Z,1.67
2023-03-29T12:03:53.265Z,27.33
2023-03-29T12:09:05.383Z,2.40
2023-03-29T12:14:23.417Z,2.28
2023-03-29T12:19:46.031Z,2.38
2023-03-29T12:24:51.155Z,0.80
2023-03-29T12:30:05.248Z,17.10
2023-03-29T12:35:40.364Z,28.95
2023-03-29T12:41:19.186Z,2.63
2023-03-29T12:46:41.364Z,1.48
2023-03-29T12:51:44.106Z,1.20
2023-03-29T12:56:52.572Z,0.93
2023-03-29T13:02:23.300Z,1.52
2023-03-29T13:07:29.020Z,9.68
2023-03-29T13:12:42.325Z,1.27
2023-03-29T13:18:23.850Z,5.22
2023-03-29T13:24:00.181Z,1.17
2023-03-29T13:29:48.108Z,1.77
2023-03-29T13:35:06.396Z,3.42
2023-03-29T13:40:46.927Z,3.55
2023-03-29T13:45:58.990Z,1.65
2023-03-29T13:51:18.909Z,5.03
2023-03-29T13:56:38.642Z,2.75
2023-03-29T14:01:50.691Z,3.67
2023-03-29T14:06:56.859Z,0.70
2023-03-29T14:12:02.965Z,2.10
2023-03-29T14:17:06.316Z,0.63
2023-03-29T14:22:17.241Z,1.50
2023-03-29T14:27:21.789Z,14.40
2023-03-29T14:32:32.016Z,5.80
2023-03-29T14:37:34.725Z,3.55
2023-03-29T14:42:38.553Z,2.42
2023-03-29T14:47:41.878Z,3.53
2023-03-29T14:52:47.261Z,3.28
2023-03-29T14:57:54.227Z,3.40
2023-03-29T15:03:02.718Z,8.27
2023-03-29T15:08:10.416Z,4.30
2023-03-29T15:13:21.032Z,3.97
2023-03-29T15:18:38.446Z,3.35
2023-03-29T15:24:43.214Z,2.97
2023-03-29T15:29:48.234Z,9.63
2023-03-29T15:35:08.012Z,1.50
2023-03-29T15:40:16.619Z,11.07
2023-03-29T15:45:21.318Z,12.25
2023-03-29T15:50:23.869Z,15.90
2023-03-29T15:55:29.566Z,19.88
2023-03-29T16:00:33.024Z,8.52
2023-03-29T16:05:36.011Z,2.03
2023-03-29T16:10:39.265Z,2.30
2023-03-29T16:15:43.133Z,4.82
2023-03-29T16:20:46.683Z,1.00
2023-03-29T16:25:49.228Z,3.38
2023-03-29T16:31:43.976Z,5.47
2023-03-29T19:19:26.523Z,29.83
2023-03-29T19:24:29.342Z,31.50
2023-03-29T19:29:32.169Z,29.27
2023-03-29T19:34:35.037Z,28.63
2023-03-29T19:39:37.727Z,28.13
2023-03-29T19:44:40.366Z,29.50
2023-03-29T19:49:42.942Z,38.08
2023-03-29T19:54:46.043Z,37.13
2023-03-29T19:59:48.698Z,37.63
2023-03-29T20:04:52.853Z,32.40
2023-03-29T20:09:55.732Z,39.90
2023-03-29T20:14:58.471Z,44.38
2023-03-29T20:20:01.882Z,49.30
2023-03-29T20:25:06.010Z,56.25
2023-03-29T20:30:10.693Z,70.63
2023-03-29T20:35:13.329Z,72.18
2023-03-29T20:40:16.966Z,57.70
2023-03-29T20:45:19.592Z,53.72
2023-03-29T20:50:26.199Z,53.50
2023-03-29T20:55:30.439Z,46.95
2023-03-29T21:00:35.405Z,61.72
2023-03-29T21:10:42.605Z,53.05
2023-03-29T21:15:47.557Z,54.75
2023-03-29T21:20:50.225Z,32.88
2023-03-29T21:25:52.789Z,28.88
2023-03-29T21:30:55.855Z,27.90
2023-03-29T21:35:58.598Z,29.02
2023-03-29T21:41:02.579Z,38.33
2023-03-29T21:46:05.870Z,32.40
2023-03-29T21:51:09.035Z,37.90
2023-03-29T21:56:12.275Z,26.40
2023-03-29T22:01:14.853Z,35.10
2023-03-29T22:06:17.727Z,23.35
2023-03-29T22:11:21.115Z,19.52
2023-03-29T22:16:26.110Z,27.80
2023-03-29T22:21:30.673Z,28.02
2023-03-29T22:26:33.659Z,40.10
2023-03-29T22:31:37.844Z,54.45
2023-03-29T22:36:40.626Z,50.38
2023-03-29T22:41:43.199Z,69.82
2023-03-29T22:46:45.840Z,99.53
2023-03-29T22:51:48.900Z,98.40
2023-03-29T22:56:51.665Z,98.07
2023-03-29T23:01:54.732Z,63.25
2023-03-29T23:06:58.444Z,59.75
2023-03-29T23:12:01.239Z,50.78
2023-03-29T23:17:04.149Z,56.70
2023-03-29T23:22:06.817Z,42.53
2023-03-29T23:27:09.625Z,46.47
2023-03-29T23:32:14.238Z,35.58
2023-03-29T23:37:16.790Z,28.67
2023-03-29T23:42:20.100Z,21.00
2023-03-29T23:47:22.698Z,14.73
2023-03-29T23:52:25.361Z,15.38
2023-03-29T23:57:29.198Z,19.75
